Hlavní strana
METAR-TAF:

METAR-TAF

Letiště :

Tajima, Japonsko

zeměpisná šířka: 35-31N, zeměpisná délka: 134-48E, výška: 210 m

Aktuální stav počasí

Zpráva byla vytvořena před 12 minutami, v 04:00 UTC
Západní vítr 6 kt
Teplota 7°C
Vlhkost vzduchu 93%
Tlak 1024 hPa
Viditelnost 10 km a více
Skoro jasno ve výšce do 100 ft
Polojasno ve výšce 2000 ft
Oblačno až skoro zataženo ve výšce 3000 ft
slabé dešťové přeháňky

METAR: RJBT 200400Z 28006KT 9999 -SHRA FEW000 SCT020 BKN030 07/06 Q1024

Čas: 13:12 (04:12 UTC)


TAF: chybějící

Stav a předpovědi počasí z více než 4 000 letišť (zprávy METAR a TAF).

Červené a žluté tečky na mapě představují dostupné meteorologické stanice.

Když kurzor umístíte na tečku, zobrazí se název stanice.

Pak kliknutím zobrazíte stav a předpověď počasí.

Chcete-li změnit mapu, kliknutím na zelené tlačítko se znaménkem +mapu přiblížíte, kliknutím na zelené tlačítko se znaménkem – mapu oddálíte a kliknutím na zelené šipky přejdete na sousední mapy.


METAR-TAF: